Time;durP1;ratioP1;P1;durP2;ratioP2;P2;SDS_P1;SDS_P2;PMS_P1;PMS_P2;Temp;Humidity;BMP_temperature;BMP_pressure;BME280_temperature;BME280_humidity;BME280_pressure;Samples;Min_cycle;Max_cycle;Signal;HPM_P1;HPM_P2
2023/01/28 00:00:54;;;;;;;145.77;73.97;;;2.30;99.90;;;;;;5052643;28;20296;-50
2023/01/28 00:03:22;;;;;;;1999.90;567.73;;;2.40;99.90;;;;;;5048466;28;20261;-51
2023/01/28 00:05:50;;;;;;;1863.40;566.87;;;2.30;99.90;;;;;;5052160;28;20233;-50
2023/01/28 00:08:18;;;;;;;1868.30;382.47;;;2.30;99.90;;;;;;5052273;28;20313;-51
2023/01/28 00:10:46;;;;;;;1999.90;472.93;;;2.30;99.90;;;;;;5052278;28;20315;-51
2023/01/28 00:13:14;;;;;;;1999.90;758.87;;;2.30;99.90;;;;;;5052082;28;20209;-49
2023/01/28 00:15:43;;;;;;;859.60;187.53;;;2.20;99.90;;;;;;5052130;28;20211;-51
2023/01/28 00:18:12;;;;;;;1742.00;360.00;;;2.30;99.90;;;;;;5051977;28;20747;-50
2023/01/28 00:20:40;;;;;;;1834.10;350.67;;;2.30;99.90;;;;;;5051625;28;20740;-51
2023/01/28 00:23:08;;;;;;;1227.77;317.57;;;2.30;99.90;;;;;;5050557;28;20322;-50
2023/01/28 00:25:36;;;;;;;564.53;179.63;;;2.30;99.90;;;;;;5052149;28;20230;-50
2023/01/28 00:28:04;;;;;;;1999.90;492.57;;;2.30;99.90;;;;;;5051592;28;20209;-51
2023/01/28 00:30:32;;;;;;;212.80;113.30;;;2.20;99.90;;;;;;5052053;28;20215;-51
2023/01/28 00:33:01;;;;;;;1515.73;418.03;;;2.20;99.90;;;;;;5050706;28;20231;-50
2023/01/28 00:35:29;;;;;;;273.27;127.70;;;2.30;99.90;;;;;;5049898;28;20204;-50
2023/01/28 00:37:58;;;;;;;1193.87;297.63;;;2.30;99.90;;;;;;5045748;28;20291;-51
2023/01/28 00:40:26;;;;;;;150.73;122.93;;;2.30;99.90;;;;;;5051824;28;20232;-51
2023/01/28 00:42:54;;;;;;;1323.57;295.83;;;2.30;99.90;;;;;;5050921;28;20229;-50
2023/01/28 00:45:22;;;;;;;211.00;125.20;;;2.30;99.90;;;;;;5051415;28;20316;-51
2023/01/28 00:47:50;;;;;;;1999.90;605.07;;;2.30;99.90;;;;;;5050976;28;20305;-50
2023/01/28 00:50:20;;;;;;;1999.90;442.83;;;2.30;99.90;;;;;;5049355;28;20675;-50
2023/01/28 00:52:48;;;;;;;212.57;113.50;;;2.30;99.90;;;;;;5043668;28;20797;-50
2023/01/28 00:55:16;;;;;;;209.13;107.07;;;2.20;99.90;;;;;;5048698;28;20202;-50
2023/01/28 00:57:44;;;;;;;1999.90;589.47;;;2.20;99.90;;;;;;5051041;28;20301;-50
2023/01/28 01:00:13;;;;;;;1999.90;758.87;;;2.20;99.90;;;;;;5050291;28;20219;-50
2023/01/28 01:02:41;;;;;;;1599.43;395.63;;;2.20;99.90;;;;;;5050880;28;20233;-50
2023/01/28 01:05:09;;;;;;;191.70;94.57;;;2.20;99.90;;;;;;5050652;28;20721;-50
2023/01/28 01:07:41;;;;;;;1999.90;477.83;;;2.10;99.90;;;;;;5051659;28;20634;-50
2023/01/28 01:10:11;;;;;;;1999.90;564.53;;;2.10;99.90;;;;;;5051100;28;20221;-51
2023/01/28 01:12:39;;;;;;;99.63;89.43;;;2.00;99.90;;;;;;5036680;28;20313;-50
2023/01/28 01:15:09;;;;;;;89.43;79.73;;;2.00;99.90;;;;;;5051135;28;20212;-50
2023/01/28 01:17:37;;;;;;;1999.90;473.27;;;2.10;99.90;;;;;;5050638;28;20217;-50
2023/01/28 01:20:07;;;;;;;190.93;139.20;;;2.10;99.90;;;;;;5050919;28;20273;-50
2023/01/28 01:22:36;;;;;;;1011.30;300.07;;;2.10;99.90;;;;;;5050793;28;20225;-51
2023/01/28 01:25:07;;;;;;;56.60;49.63;;;2.10;99.90;;;;;;5050508;28;20293;-51
2023/01/28 01:27:35;;;;;;;236.10;136.83;;;2.00;99.90;;;;;;5050970;28;20296;-50
2023/01/28 01:30:03;;;;;;;603.80;204.83;;;2.10;99.90;;;;;;5050961;28;20296;-51
2023/01/28 01:32:33;;;;;;;82.07;74.77;;;2.10;99.90;;;;;;5050084;28;20225;-51
2023/01/28 01:35:02;;;;;;;208.70;146.87;;;2.10;99.90;;;;;;5047513;28;20297;-51
2023/01/28 01:37:30;;;;;;;605.37;233.80;;;2.20;99.90;;;;;;5036478;28;20293;-51
2023/01/28 01:39:57;;;;;;;190.00;96.70;;;2.20;99.90;;;;;;5051341;28;20832;-50
2023/01/28 01:42:27;;;;;;;70.90;65.03;;;2.20;99.90;;;;;;5050273;28;20267;-51
2023/01/28 01:45:00;;;;;;;416.30;176.57;;;2.20;99.90;;;;;;5052115;28;20207;-50
2023/01/28 01:47:35;;;;;;;954.63;264.00;;;2.20;99.90;;;;;;5051015;28;20230;-51
2023/01/28 01:50:07;;;;;;;409.67;178.20;;;2.20;99.90;;;;;;5050295;28;20204;-51
2023/01/28 01:52:36;;;;;;;1999.90;805.40;;;2.20;99.90;;;;;;5050124;28;20227;-51
2023/01/28 01:55:11;;;;;;;928.70;284.97;;;2.10;99.90;;;;;;5050064;28;20211;-51
2023/01/28 01:57:42;;;;;;;155.97;90.83;;;2.10;99.90;;;;;;5050196;28;20371;-51
2023/01/28 02:00:11;;;;;;;1323.17;371.93;;;2.10;99.90;;;;;;5050243;28;20209;-50
2023/01/28 02:02:41;;;;;;;1935.40;432.07;;;2.10;99.90;;;;;;5049366;28;20326;-51
2023/01/28 02:05:12;;;;;;;1999.90;944.03;;;2.10;99.90;;;;;;5050014;28;20294;-50
2023/01/28 02:07:41;;;;;;;1999.90;968.50;;;2.10;99.90;;;;;;5049925;28;20210;-49
2023/01/28 02:10:11;;;;;;;690.30;235.33;;;2.10;99.90;;;;;;5049772;28;20770;-51
2023/01/28 02:12:43;;;;;;;1999.90;764.23;;;2.00;99.90;;;;;;5048738;28;20267;-50
2023/01/28 02:15:16;;;;;;;32.33;28.00;;;1.90;99.90;;;;;;5050181;28;20233;-50
2023/01/28 02:17:45;;;;;;;1999.90;754.67;;;1.90;99.90;;;;;;5049716;28;20208;-51
2023/01/28 02:20:17;;;;;;;1401.40;329.80;;;1.90;99.90;;;;;;5049709;28;20926;-51
2023/01/28 02:23:15;;;;;;;405.97;193.43;;;1.90;99.90;;;;;;5049155;28;20235;-51
2023/01/28 02:26:28;;;;;;;1349.17;415.90;;;1.90;99.90;;;;;;5047631;28;20198;-50
2023/01/28 02:29:02;;;;;;;160.27;101.97;;;1.80;99.90;;;;;;5043495;28;20296;-51
2023/01/28 02:31:35;;;;;;;181.13;150.67;;;1.90;99.90;;;;;;5049430;28;20327;-50
2023/01/28 02:34:09;;;;;;;74.60;67.83;;;1.90;99.90;;;;;;5038569;28;20671;-51
2023/01/28 02:36:43;;;;;;;1298.40;339.43;;;1.90;99.90;;;;;;5049429;28;21416;-51
2023/01/28 02:39:16;;;;;;;973.43;250.30;;;1.90;99.90;;;;;;5036008;28;20209;-51
2023/01/28 02:41:50;;;;;;;1928.27;474.67;;;1.90;99.90;;;;;;5049573;28;20317;-50
2023/01/28 02:44:19;;;;;;;721.87;305.90;;;1.90;99.90;;;;;;5035916;28;20308;-51
2023/01/28 02:49:42;;;;;;;1543.03;364.70;;;1.80;99.90;;;;;;5049383;28;20216;-50
2023/01/28 02:53:39;;;;;;;898.40;267.07;;;1.80;99.90;;;;;;5049028;28;20716;-50
2023/01/28 02:55:16;;;;;;;1999.90;648.80;;;1.80;99.90;;;;;;5049093;28;20211;-51
2023/01/28 02:57:57;;;;;;;1999.90;665.20;;;1.80;99.90;;;;;;5048902;28;20678;-50
2023/01/28 03:00:36;;;;;;;221.03;143.10;;;1.80;99.90;;;;;;5049450;28;20642;-51
2023/01/28 03:03:14;;;;;;;1999.90;703.33;;;1.80;99.90;;;;;;5035247;28;20308;-49
2023/01/28 03:06:02;;;;;;;1914.40;455.53;;;1.80;99.90;;;;;;5048575;28;20304;-51
2023/01/28 03:36:53;;;;;;;268.83;158.73;;;1.80;99.90;;;;;;5053386;28;20773;-49
2023/01/28 03:39:23;;;;;;;1849.83;562.97;;;1.70;99.90;;;;;;5064105;28;20631;-51
2023/01/28 03:42:04;;;;;;;1999.90;838.50;;;1.80;99.90;;;;;;5051023;28;20233;-50
2023/01/28 03:44:51;;;;;;;1999.90;611.17;;;1.80;99.90;;;;;;5068946;28;20300;-51
2023/01/28 03:47:21;;;;;;;1805.83;583.20;;;1.70;99.90;;;;;;5066809;28;20235;-50
2023/01/28 03:49:52;;;;;;;219.77;150.23;;;1.70;99.90;;;;;;5052590;28;20244;-50
2023/01/28 03:52:22;;;;;;;1999.90;554.47;;;1.70;99.90;;;;;;5061695;28;20260;-50
2023/01/28 03:54:51;;;;;;;1999.90;566.27;;;1.70;99.90;;;;;;5068921;28;20291;-51
2023/01/28 03:57:22;;;;;;;1734.67;442.47;;;1.60;99.90;;;;;;5065781;28;20660;-50
2023/01/28 03:59:51;;;;;;;1811.33;458.20;;;1.60;99.90;;;;;;5058471;28;20293;-50
2023/01/28 04:02:21;;;;;;;1999.90;555.37;;;1.60;99.90;;;;;;5068300;28;20713;-50
2023/01/28 04:04:49;;;;;;;1055.37;292.77;;;1.60;99.90;;;;;;5068736;28;20807;-50
2023/01/28 04:07:19;;;;;;;1999.90;687.67;;;1.60;99.90;;;;;;5068598;28;20330;-49
2023/01/28 04:09:47;;;;;;;1999.90;762.67;;;1.60;99.90;;;;;;5068612;28;20699;-50
2023/01/28 04:12:15;;;;;;;1381.37;370.27;;;1.60;99.90;;;;;;5068406;28;20667;-50
2023/01/28 04:14:43;;;;;;;322.83;197.60;;;1.60;99.90;;;;;;5040542;28;20242;-51
2023/01/28 04:17:11;;;;;;;1215.60;370.37;;;1.70;99.90;;;;;;5061910;28;20289;-49
2023/01/28 04:19:39;;;;;;;195.60;133.10;;;1.70;99.90;;;;;;5067238;28;20292;-50
2023/01/28 04:22:10;;;;;;;563.93;203.57;;;1.70;99.90;;;;;;5065714;28;20263;-51
2023/01/28 04:24:40;;;;;;;1055.83;523.60;;;1.70;99.90;;;;;;5068247;28;20242;-50
2023/01/28 04:27:08;;;;;;;1663.83;441.27;;;1.70;99.90;;;;;;5050398;28;20229;-50
2023/01/28 04:29:36;;;;;;;1703.67;421.43;;;1.70;99.90;;;;;;5054169;28;20221;-51
2023/01/28 04:32:04;;;;;;;531.47;236.63;;;1.60;99.90;;;;;;5060196;28;20312;-48
2023/01/28 04:34:32;;;;;;;1999.90;518.10;;;1.60;99.90;;;;;;5063420;28;20204;-50
2023/01/28 04:37:00;;;;;;;1999.90;663.73;;;1.60;99.90;;;;;;5065322;28;20217;-51
2023/01/28 04:39:28;;;;;;;145.73;125.43;;;1.60;99.90;;;;;;5063832;28;20674;-50
2023/01/28 04:41:57;;;;;;;1999.90;875.23;;;1.60;99.90;;;;;;5063834;28;20253;-50
2023/01/28 04:44:25;;;;;;;1999.90;563.10;;;1.60;99.90;;;;;;5055288;28;20247;-50
2023/01/28 04:46:53;;;;;;;1999.90;537.93;;;1.60;99.90;;;;;;5071275;28;20780;-50
2023/01/28 04:49:21;;;;;;;410.03;222.07;;;1.70;99.90;;;;;;5071744;28;20285;-50
2023/01/28 04:51:49;;;;;;;178.73;142.47;;;1.70;99.90;;;;;;5071092;28;20317;-50
2023/01/28 04:54:17;;;;;;;296.87;182.73;;;1.70;99.90;;;;;;5071641;28;20222;-50
2023/01/28 04:56:45;;;;;;;186.43;162.93;;;1.60;99.90;;;;;;5071588;28;20303;-51
2023/01/28 04:59:14;;;;;;;104.73;95.63;;;1.60;99.90;;;;;;5070254;28;20328;-51
2023/01/28 05:01:42;;;;;;;147.80;131.60;;;1.70;99.90;;;;;;5071402;28;20239;-50
2023/01/28 05:04:11;;;;;;;1999.90;592.23;;;1.70;99.90;;;;;;5057770;28;20201;-50
2023/01/28 05:06:39;;;;;;;650.67;289.47;;;1.70;99.90;;;;;;5071136;28;20205;-50
2023/01/28 05:09:07;;;;;;;1416.53;357.13;;;1.70;99.90;;;;;;5070840;28;20308;-51
2023/01/28 05:11:35;;;;;;;259.83;143.33;;;1.70;99.90;;;;;;5057091;28;20309;-51
2023/01/28 05:14:06;;;;;;;1751.13;450.57;;;1.70;99.90;;;;;;5066708;28;20197;-51
2023/01/28 05:16:35;;;;;;;1999.90;999.90;;;1.70;99.90;;;;;;5071017;28;20327;-51
2023/01/28 05:19:03;;;;;;;305.40;251.57;;;1.80;99.90;;;;;;5070867;28;20206;-51
2023/01/28 05:21:31;;;;;;;120.17;109.57;;;1.80;99.90;;;;;;5071190;28;20232;-50
2023/01/28 05:23:59;;;;;;;475.83;271.97;;;1.70;99.90;;;;;;5060510;28;20230;-50
2023/01/28 05:26:27;;;;;;;231.07;213.07;;;1.80;99.90;;;;;;5071248;28;20244;-52
2023/01/28 05:28:55;;;;;;;412.63;243.77;;;1.80;99.90;;;;;;5070857;28;20661;-51
2023/01/28 05:31:23;;;;;;;277.33;247.30;;;1.80;99.90;;;;;;5068419;28;20320;-50
2023/01/28 05:33:53;;;;;;;153.40;138.10;;;1.80;99.90;;;;;;5059165;28;20754;-49
2023/01/28 05:36:21;;;;;;;253.00;191.83;;;1.80;99.90;;;;;;5070936;28;20741;-51
2023/01/28 05:38:48;;;;;;;329.20;241.93;;;1.80;99.90;;;;;;5070273;28;20267;-51
2023/01/28 05:41:16;;;;;;;219.57;197.33;;;1.80;99.90;;;;;;5070523;28;20307;-51
2023/01/28 05:43:44;;;;;;;603.37;305.10;;;1.80;99.90;;;;;;5042618;28;20644;-51
2023/01/28 05:46:12;;;;;;;1963.83;597.43;;;1.80;99.90;;;;;;5070536;28;20215;-51
2023/01/28 05:48:40;;;;;;;1620.10;554.07;;;1.60;99.90;;;;;;5064125;28;20254;-51
2023/01/28 05:51:10;;;;;;;1999.90;704.47;;;1.60;99.90;;;;;;5052315;28;20201;-51
2023/01/28 05:53:37;;;;;;;1999.90;903.63;;;1.60;99.90;;;;;;5070082;28;20247;-51
2023/01/28 05:56:06;;;;;;;518.70;401.37;;;1.70;99.90;;;;;;5070312;28;20251;-50
2023/01/28 05:58:34;;;;;;;235.00;215.67;;;1.60;99.90;;;;;;5056077;28;20206;-51
2023/01/28 06:01:02;;;;;;;475.87;425.47;;;1.60;99.90;;;;;;5066403;28;20205;-50
2023/01/28 06:03:30;;;;;;;1305.90;512.07;;;1.70;99.90;;;;;;5059188;28;20657;-51
2023/01/28 06:05:58;;;;;;;1092.07;570.20;;;1.60;99.90;;;;;;5067629;28;20211;-51
2023/01/28 06:08:27;;;;;;;1999.90;972.63;;;1.60;99.90;;;;;;5069763;28;20220;-51
2023/01/28 06:10:55;;;;;;;337.40;280.63;;;1.50;99.90;;;;;;5069597;28;20661;-50
2023/01/28 06:13:23;;;;;;;1999.90;999.90;;;1.50;99.90;;;;;;5069820;28;20213;-51
2023/01/28 06:15:51;;;;;;;328.67;305.20;;;1.60;99.90;;;;;;5069948;28;20300;-49
2023/01/28 06:18:19;;;;;;;878.03;621.93;;;1.60;99.90;;;;;;5056123;28;20252;-49
2023/01/28 06:20:49;;;;;;;1326.60;659.07;;;1.60;99.90;;;;;;5064061;28;20209;-50
2023/01/28 06:23:17;;;;;;;385.07;356.23;;;1.60;99.90;;;;;;5069627;28;20208;-52
2023/01/28 06:25:47;;;;;;;1999.90;772.07;;;1.60;99.90;;;;;;5069660;28;20799;-51
2023/01/28 06:28:15;;;;;;;888.60;427.73;;;1.60;99.90;;;;;;5061506;28;20238;-50
2023/01/28 06:30:43;;;;;;;225.20;208.47;;;1.60;99.90;;;;;;5054084;28;20206;-51
2023/01/28 06:33:11;;;;;;;1999.90;818.00;;;1.60;99.90;;;;;;5055061;28;20234;-51
2023/01/28 06:35:39;;;;;;;1921.07;685.60;;;1.60;99.90;;;;;;5062356;28;20669;-50
2023/01/28 06:38:07;;;;;;;1999.90;745.93;;;1.50;99.90;;;;;;5064782;28;20296;-50
2023/01/28 06:40:35;;;;;;;1153.57;592.10;;;1.40;99.90;;;;;;5049137;28;20648;-51
2023/01/28 06:43:05;;;;;;;1999.90;750.20;;;1.40;99.90;;;;;;5064935;28;20291;-50
2023/01/28 06:45:33;;;;;;;1284.13;606.77;;;1.40;99.90;;;;;;5069625;28;20295;-51
2023/01/28 06:48:01;;;;;;;687.27;520.00;;;1.30;99.90;;;;;;5042114;28;20226;-50
2023/01/28 06:50:31;;;;;;;307.00;284.20;;;1.40;99.90;;;;;;5069112;28;20643;-50
2023/01/28 06:52:58;;;;;;;508.27;460.27;;;1.40;99.90;;;;;;5068714;28;20599;-50
2023/01/28 06:55:26;;;;;;;1488.77;633.07;;;1.40;99.90;;;;;;5063070;28;20669;-49
2023/01/28 06:57:54;;;;;;;1413.30;643.37;;;1.40;99.90;;;;;;5049931;28;20218;-51
2023/01/28 07:00:24;;;;;;;390.47;354.57;;;1.50;99.90;;;;;;5056245;28;20294;-51
2023/01/28 07:02:55;;;;;;;1999.90;786.93;;;1.50;99.90;;;;;;5068632;28;20275;-51
2023/01/28 07:05:24;;;;;;;763.80;561.30;;;1.40;99.90;;;;;;5054837;28;20213;-51
2023/01/28 07:07:52;;;;;;;1952.73;772.33;;;1.50;99.90;;;;;;5064931;28;20204;-50
2023/01/28 07:10:20;;;;;;;1999.90;892.53;;;1.50;99.90;;;;;;5058612;28;20300;-51
2023/01/28 07:12:48;;;;;;;1001.67;597.77;;;1.40;99.90;;;;;;5069043;28;20315;-51
2023/01/28 07:15:16;;;;;;;1334.87;639.47;;;1.50;99.90;;;;;;5069224;28;20206;-51
2023/01/28 07:17:45;;;;;;;1286.17;707.37;;;1.50;99.90;;;;;;5044499;28;20215;-51
2023/01/28 07:20:14;;;;;;;1343.13;667.90;;;1.40;99.90;;;;;;5048678;28;20583;-50
2023/01/28 07:22:44;;;;;;;1999.90;976.03;;;1.40;99.90;;;;;;5049088;28;20228;-51
2023/01/28 07:25:14;;;;;;;1999.90;853.40;;;1.40;99.90;;;;;;5047612;28;20296;-50
2023/01/28 07:27:48;;;;;;;1259.87;563.33;;;1.30;99.90;;;;;;5048006;28;20209;-50
2023/01/28 07:30:17;;;;;;;632.17;404.20;;;1.40;99.90;;;;;;5042066;28;20321;-52
2023/01/28 07:32:47;;;;;;;1858.67;698.60;;;1.40;99.90;;;;;;5046664;28;20327;-51
2023/01/28 07:35:15;;;;;;;395.13;365.13;;;1.40;99.90;;;;;;5053300;28;20299;-52
2023/01/28 07:37:50;;;;;;;452.83;408.33;;;1.50;99.90;;;;;;5051366;28;20304;-53
2023/01/28 07:40:18;;;;;;;1047.60;580.03;;;1.50;99.90;;;;;;5066894;28;20745;-51
2023/01/28 07:42:47;;;;;;;461.13;411.83;;;1.40;99.90;;;;;;5064091;28;20256;-51
2023/01/28 07:45:15;;;;;;;1577.67;697.73;;;1.40;99.90;;;;;;5068382;28;20201;-50
2023/01/28 07:47:43;;;;;;;1999.90;858.73;;;1.40;99.90;;;;;;5068631;28;20300;-53
2023/01/28 07:50:13;;;;;;;725.63;511.57;;;1.30;99.90;;;;;;5068826;28;20240;-52
2023/01/28 07:52:44;;;;;;;646.07;595.33;;;1.30;99.90;;;;;;5068403;28;20564;-51
2023/01/28 07:55:14;;;;;;;557.03;507.30;;;1.40;99.90;;;;;;5045286;28;20699;-52
2023/01/28 07:57:50;;;;;;;507.93;465.67;;;1.40;99.90;;;;;;5069074;28;20301;-49
2023/01/28 08:00:19;;;;;;;1348.80;804.10;;;1.50;99.90;;;;;;5068316;28;20757;-51
2023/01/28 08:02:48;;;;;;;725.53;511.33;;;1.50;99.90;;;;;;5068549;28;20233;-51
2023/01/28 08:05:19;;;;;;;1821.57;687.63;;;1.50;99.90;;;;;;5068278;28;20213;-51
2023/01/28 08:07:48;;;;;;;796.17;591.30;;;1.40;99.90;;;;;;5061640;28;20296;-50
2023/01/28 08:10:17;;;;;;;469.90;418.10;;;1.40;99.90;;;;;;5070279;28;20677;-52
2023/01/28 08:12:53;;;;;;;1999.90;772.37;;;1.50;99.90;;;;;;5072366;28;20329;-50
2023/01/28 08:15:21;;;;;;;1529.73;691.83;;;1.50;99.90;;;;;;5072161;28;20206;-51
2023/01/28 08:17:50;;;;;;;1954.97;727.53;;;1.50;99.90;;;;;;5072219;28;20272;-52
2023/01/28 08:20:19;;;;;;;1013.43;570.77;;;1.40;99.90;;;;;;5071653;28;20580;-51
2023/01/28 08:22:47;;;;;;;717.27;528.47;;;1.50;99.90;;;;;;5070646;28;20284;-53
2023/01/28 08:25:15;;;;;;;1999.90;693.83;;;1.50;99.90;;;;;;5054621;28;20217;-51
2023/01/28 08:27:43;;;;;;;1126.90;595.33;;;1.50;99.90;;;;;;5051151;28;20803;-52
2023/01/28 08:30:12;;;;;;;377.87;348.00;;;1.50;99.90;;;;;;5041920;28;20773;-53
2023/01/28 08:32:40;;;;;;;1056.37;608.23;;;1.50;99.90;;;;;;5048109;28;20879;-52
2023/01/28 08:35:09;;;;;;;1999.90;999.90;;;1.50;99.90;;;;;;5050907;28;20209;-51
2023/01/28 08:37:38;;;;;;;1999.90;819.77;;;1.60;99.90;;;;;;5051001;28;20215;-52
2023/01/28 08:40:07;;;;;;;1999.90;820.47;;;1.60;99.90;;;;;;5051493;28;20203;-51
2023/01/28 08:42:35;;;;;;;567.50;516.73;;;1.70;99.90;;;;;;5046164;28;20235;-52
2023/01/28 08:45:04;;;;;;;1172.90;744.03;;;1.60;99.90;;;;;;5050654;28;20624;-51
2023/01/28 08:47:33;;;;;;;752.60;649.97;;;1.60;99.90;;;;;;5050600;28;20293;-51
2023/01/28 08:50:01;;;;;;;1952.47;923.77;;;1.50;99.90;;;;;;5050958;28;20762;-50
2023/01/28 08:52:29;;;;;;;1699.47;740.67;;;1.60;99.90;;;;;;5050042;28;20256;-51
2023/01/28 08:54:58;;;;;;;1039.77;598.67;;;1.60;99.90;;;;;;5050947;28;20328;-51
2023/01/28 08:57:26;;;;;;;668.10;565.03;;;1.60;99.90;;;;;;5050471;28;20201;-53
2023/01/28 08:59:54;;;;;;;1999.90;991.33;;;1.60;99.90;;;;;;5051039;28;20210;-51
2023/01/28 09:02:22;;;;;;;982.60;705.07;;;1.60;99.90;;;;;;5050071;28;20222;-51
2023/01/28 09:04:59;;;;;;;648.20;579.00;;;1.60;99.90;;;;;;5051471;28;20205;-50
2023/01/28 09:07:27;;;;;;;1539.47;797.00;;;1.60;99.90;;;;;;5050510;28;20203;-51
2023/01/28 09:09:55;;;;;;;1493.17;778.63;;;1.60;99.90;;;;;;5041334;28;20966;-51
2023/01/28 09:12:25;;;;;;;816.93;640.63;;;1.70;99.90;;;;;;5037574;28;20718;-50
2023/01/28 09:14:54;;;;;;;1999.90;974.10;;;1.60;99.90;;;;;;5047506;28;20209;-50
2023/01/28 09:17:22;;;;;;;565.43;516.43;;;1.70;99.90;;;;;;5048853;28;20210;-51
2023/01/28 09:19:50;;;;;;;791.30;710.70;;;1.80;99.90;;;;;;5051383;28;20202;-51
2023/01/28 09:22:18;;;;;;;845.33;660.47;;;1.90;99.90;;;;;;5049258;28;20736;-50
2023/01/28 09:24:47;;;;;;;583.57;531.67;;;1.80;99.90;;;;;;5050602;28;20208;-51
2023/01/28 09:27:15;;;;;;;1415.40;751.20;;;1.80;99.90;;;;;;5049483;28;20256;-51
2023/01/28 09:29:44;;;;;;;1999.90;912.27;;;1.90;99.90;;;;;;5048733;28;20806;-50
2023/01/28 09:32:12;;;;;;;1276.67;860.83;;;1.90;99.90;;;;;;5048787;28;20308;-51
2023/01/28 09:34:40;;;;;;;715.67;641.97;;;1.90;99.90;;;;;;5050884;28;20644;-51
2023/01/28 09:37:08;;;;;;;712.80;583.30;;;1.90;99.90;;;;;;5049590;28;20293;-51
2023/01/28 09:39:36;;;;;;;1530.67;700.23;;;1.90;99.90;;;;;;5042590;28;20198;-51
2023/01/28 09:42:32;;;;;;;631.67;509.20;;;1.90;99.90;;;;;;5044873;28;20240;-51
2023/01/28 09:45:12;;;;;;;1797.63;906.43;;;1.90;99.90;;;;;;5046740;28;20212;-52
2023/01/28 09:47:43;;;;;;;494.70;458.37;;;1.90;99.90;;;;;;5054300;28;20302;-50
2023/01/28 09:50:15;;;;;;;805.67;724.77;;;1.90;99.90;;;;;;5054630;28;20253;-52
2023/01/28 09:52:45;;;;;;;898.87;730.13;;;2.00;99.90;;;;;;5048588;28;20237;-53
2023/01/28 09:55:22;;;;;;;1630.43;831.53;;;2.00;99.90;;;;;;5060571;28;20308;-52
2023/01/28 09:57:52;;;;;;;1064.73;834.10;;;2.10;99.90;;;;;;5054410;28;20296;-50
2023/01/28 10:00:24;;;;;;;1999.90;999.90;;;2.00;99.90;;;;;;5059982;28;20204;-53
2023/01/28 10:03:24;;;;;;;739.67;630.83;;;2.20;99.90;;;;;;5057522;28;20232;-52
2023/01/28 10:06:03;;;;;;;1045.60;770.63;;;2.10;99.90;;;;;;5055137;28;20215;-52
2023/01/28 10:08:46;;;;;;;621.73;570.87;;;2.10;99.90;;;;;;5049003;28;20209;-51
2023/01/28 10:11:26;;;;;;;811.30;706.47;;;2.10;99.90;;;;;;5049141;28;20244;-51
2023/01/28 10:14:03;;;;;;;1999.90;999.90;;;2.20;99.90;;;;;;5048748;28;20670;-52
2023/01/28 10:16:40;;;;;;;1922.23;926.23;;;2.20;99.90;;;;;;5048717;28;20239;-51
2023/01/28 10:19:14;;;;;;;1999.90;961.67;;;2.20;99.90;;;;;;5049065;28;20209;-51
2023/01/28 10:21:49;;;;;;;1999.90;999.90;;;2.20;99.90;;;;;;5048533;28;20236;-52
2023/01/28 10:24:21;;;;;;;1788.57;894.60;;;2.30;99.90;;;;;;5048789;28;20675;-51
2023/01/28 10:26:53;;;;;;;1999.90;999.90;;;2.40;99.90;;;;;;5048736;28;20205;-51
2023/01/28 10:29:25;;;;;;;1999.90;903.60;;;2.30;99.90;;;;;;5048683;28;20757;-52
2023/01/28 10:31:59;;;;;;;1999.90;999.90;;;2.30;99.90;;;;;;5047347;28;20328;-51
2023/01/28 10:34:27;;;;;;;1999.90;996.53;;;2.30;99.90;;;;;;5048937;28;20214;-51
2023/01/28 10:36:57;;;;;;;1999.90;898.43;;;2.20;99.90;;;;;;5053049;28;20205;-51
2023/01/28 10:39:27;;;;;;;1078.83;696.03;;;2.10;99.90;;;;;;5045129;28;20303;-51
2023/01/28 10:41:56;;;;;;;621.70;566.30;;;2.10;99.90;;;;;;5052300;28;20268;-51
2023/01/28 10:44:32;;;;;;;1785.57;883.53;;;2.10;99.90;;;;;;5050824;28;20211;-51
2023/01/28 10:47:08;;;;;;;1218.30;648.90;;;2.20;99.90;;;;;;5048281;28;20232;-51
2023/01/28 10:49:42;;;;;;;1999.90;942.23;;;2.20;99.90;;;;;;5048158;28;20209;-51
2023/01/28 10:52:11;;;;;;;1959.63;990.53;;;2.20;99.90;;;;;;5047779;28;20241;-51
2023/01/28 10:54:40;;;;;;;618.43;467.60;;;2.30;99.90;;;;;;5048533;28;20267;-51
2023/01/28 10:57:12;;;;;;;525.67;467.90;;;2.30;99.90;;;;;;5046437;28;20206;-51
2023/01/28 10:59:41;;;;;;;396.70;358.27;;;2.20;99.90;;;;;;5046950;28;20202;-51
2023/01/28 11:02:27;;;;;;;1631.87;688.37;;;2.30;99.90;;;;;;5045045;28;20936;-51
2023/01/28 11:05:05;;;;;;;601.73;433.47;;;2.40;99.90;;;;;;5048215;28;20580;-52
2023/01/28 11:07:33;;;;;;;474.73;417.27;;;2.50;99.90;;;;;;5048489;28;20252;-51
2023/01/28 11:10:01;;;;;;;795.63;496.10;;;2.60;99.90;;;;;;5047606;28;20595;-52
2023/01/28 11:12:30;;;;;;;392.53;354.73;;;2.60;99.90;;;;;;5047982;28;20889;-52
2023/01/28 11:15:00;;;;;;;900.20;643.33;;;2.70;99.90;;;;;;5046961;28;20216;-51
2023/01/28 11:17:31;;;;;;;1999.90;925.43;;;2.70;99.90;;;;;;5047178;28;20233;-51
2023/01/28 11:20:01;;;;;;;934.63;603.57;;;2.60;99.90;;;;;;5046999;28;20619;-51
2023/01/28 11:22:34;;;;;;;495.80;444.63;;;2.60;99.90;;;;;;5045949;28;20257;-51
2023/01/28 11:25:05;;;;;;;1279.23;749.37;;;2.60;99.90;;;;;;5045341;28;20669;-51
2023/01/28 11:27:33;;;;;;;650.03;584.23;;;2.60;99.90;;;;;;5045447;28;20216;-51
2023/01/28 11:30:03;;;;;;;1999.90;848.83;;;2.70;99.90;;;;;;5046805;28;20213;-51
2023/01/28 11:32:33;;;;;;;672.10;521.63;;;2.60;99.90;;;;;;5046915;28;20301;-51
2023/01/28 11:35:01;;;;;;;1999.90;938.73;;;2.70;99.90;;;;;;5065320;28;20229;-51
2023/01/28 11:37:30;;;;;;;1999.90;887.50;;;2.80;99.90;;;;;;5056616;28;20210;-51
2023/01/28 11:40:19;;;;;;;1834.07;801.43;;;2.80;99.90;;;;;;5056577;28;20303;-51
2023/01/28 11:42:51;;;;;;;992.10;660.67;;;2.60;99.90;;;;;;5061456;28;21004;-51
2023/01/28 11:45:25;;;;;;;1999.90;951.40;;;2.50;99.90;;;;;;5052451;28;20296;-52
2023/01/28 11:48:10;;;;;;;1517.80;640.63;;;2.50;99.90;;;;;;5052055;28;20796;-51
2023/01/28 11:50:46;;;;;;;529.20;472.67;;;2.40;99.90;;;;;;5068417;28;20208;-51
2023/01/28 11:53:32;;;;;;;522.50;468.83;;;2.40;99.90;;;;;;5051282;28;20318;-51
2023/01/28 11:56:14;;;;;;;746.37;570.50;;;2.40;99.90;;;;;;5058760;28;20723;-51
2023/01/28 11:58:52;;;;;;;550.37;492.97;;;2.40;99.90;;;;;;5065690;28;20196;-51
2023/01/28 12:01:26;;;;;;;1999.90;796.33;;;2.40;99.90;;;;;;5069054;28;20327;-51
2023/01/28 12:04:19;;;;;;;855.97;482.07;;;2.40;99.90;;;;;;5063251;28;20297;-51
2023/01/28 12:07:00;;;;;;;1536.87;721.80;;;2.40;99.90;;;;;;5048977;28;20780;-51
2023/01/28 12:09:38;;;;;;;1493.50;671.13;;;2.30;99.90;;;;;;5067943;28;20294;-51
2023/01/28 12:12:21;;;;;;;1999.90;999.90;;;2.40;99.90;;;;;;5050006;28;20314;-51
2023/01/28 12:15:07;;;;;;;1999.90;999.90;;;2.50;99.90;;;;;;5051471;28;20209;-52
2023/01/28 12:17:48;;;;;;;621.93;575.33;;;2.50;99.90;;;;;;5046721;28;20267;-52
2023/01/28 12:20:30;;;;;;;1999.90;966.73;;;2.50;99.90;;;;;;5049731;28;20587;-51
2023/01/28 12:23:18;;;;;;;855.43;705.20;;;2.50;99.90;;;;;;5049939;28;20233;-52
2023/01/28 12:26:01;;;;;;;1999.90;999.90;;;2.50;99.90;;;;;;5047174;28;20217;-51
2023/01/28 12:28:39;;;;;;;1725.30;884.93;;;2.50;99.90;;;;;;5051248;28;20670;-51
2023/01/28 12:31:20;;;;;;;554.77;502.60;;;2.50;99.90;;;;;;5050774;28;20319;-51
2023/01/28 12:34:07;;;;;;;1721.43;758.17;;;2.50;99.90;;;;;;5050972;28;20241;-51
2023/01/28 12:36:51;;;;;;;456.67;416.30;;;2.50;99.90;;;;;;5054982;28;20627;-51
2023/01/28 12:39:32;;;;;;;1532.23;702.23;;;2.40;99.90;;;;;;5051336;28;20296;-51
2023/01/28 12:42:08;;;;;;;1999.90;999.90;;;2.30;99.90;;;;;;5046991;28;20218;-52
2023/01/28 12:44:40;;;;;;;1999.90;969.20;;;2.30;99.90;;;;;;5050963;28;20207;-52
2023/01/28 12:47:12;;;;;;;1999.90;977.27;;;2.30;99.90;;;;;;5051046;28;20297;-52
2023/01/28 12:49:45;;;;;;;1999.90;897.93;;;2.20;99.90;;;;;;5051074;28;20217;-51
2023/01/28 12:52:19;;;;;;;1999.90;984.37;;;2.20;99.90;;;;;;5050020;28;20234;-51
2023/01/28 12:54:59;;;;;;;1999.90;925.33;;;2.10;99.90;;;;;;5050356;28;20219;-51
2023/01/28 12:57:29;;;;;;;1604.10;810.77;;;2.10;99.90;;;;;;5051669;28;20204;-51
2023/01/28 13:00:12;;;;;;;1063.33;593.37;;;2.10;99.90;;;;;;5049952;28;20210;-51
2023/01/28 13:02:45;;;;;;;1699.10;859.70;;;2.10;99.90;;;;;;5047968;28;20634;-51
2023/01/28 13:05:16;;;;;;;1999.90;940.07;;;2.20;99.90;;;;;;5050012;28;20212;-52